Погода Гуарульюсна неделю

Сан-Паулу, Бразилия

23 - 29 июля
  • 23июля
    Сегодня
    +10°
    +24°
    Ясно и безоблачно
    ВремяПогодаТемператураВлажностьДавлениеВетер, м/сВероятность осадков
    00:00Ясно и безоблачно+14°C81 %707 мм0.9 м/с5 %
    03:00Небольшая облачность+12°C90 %707 мм1.3 м/с5 %
    06:00Облачно с прояснениями+10°C95 %706 мм1.4 м/с5 %
    09:00Ясно и безоблачно+15°C77 %709 мм2.5 м/с5 %
    12:00Ясно и безоблачно+21°C44 %709 мм2.6 м/с5 %
    15:00Ясно и безоблачно+24°C35 %708 мм2.6 м/с5 %
    18:00Практически безоблачно+18°C71 %708 мм2.1 м/с5 %
    21:00Ясно и безоблачно+14°C74 %708 мм1.7 м/с5 %
  • 24июля
    Среда
    +10°
    +25°
    Облачно с прояснениями
    ВремяПогодаТемператураВлажностьДавлениеВетер, м/сВероятность осадков
    00:00Ясно и безоблачно+13°C76 %707 мм1.5 м/с5 %
    03:00Ясно и безоблачно+12°C80 %706 мм2.1 м/с5 %
    06:00Практически безоблачно+11°C82 %706 мм2.1 м/с5 %
    09:00Небольшая облачность+15°C65 %708 мм3.4 м/с5 %
    12:00Облачно с прояснениями+21°C43 %709 мм2.7 м/с5 %
    15:00Облачно с прояснениями+24°C35 %707 мм2.3 м/с5 %
    18:00Практически безоблачно+19°C75 %707 мм1.9 м/с5 %
    21:00Небольшая облачность+15°C94 %707 мм1.4 м/с5 %
  • 25июля
    Четверг
    +11°
    +27°
    Ясно и безоблачно
    ВремяПогодаТемператураВлажностьДавлениеВетер, м/сВероятность осадков
    00:00Ясно и безоблачно+13°C90 %707 мм1.3 м/с5 %
    03:00Небольшая облачность+12°C91 %705 мм1.7 м/с5 %
    06:00Ясно и безоблачно+11°C92 %705 мм1.6 м/с5 %
    09:00Ясно и безоблачно+16°C74 %707 мм2.5 м/с5 %
    12:00Ясно и безоблачно+24°C37 %707 мм2.7 м/с5 %
    15:00Ясно и безоблачно+27°C31 %705 мм3.0 м/с5 %
    18:00Ясно и безоблачно+21°C54 %705 мм1.7 м/с5 %
    21:00Ясно и безоблачно+18°C50 %705 мм1.1 м/с5 %
  • 26июля
    Пятница
    +12°
    +26°
    Облачно с прояснениями
    ВремяПогодаТемператураВлажностьДавлениеВетер, м/сВероятность осадков
    00:00Ясно и безоблачно+15°C64 %704 мм1.2 м/с5 %
    03:00Ясно и безоблачно+13°C67 %703 мм1.8 м/с5 %
    06:00Ясно и безоблачно+12°C84 %704 мм1.8 м/с5 %
    09:00Ясно и безоблачно+17°C66 %706 мм2.8 м/с5 %
    12:00Облачно с прояснениями+23°C38 %707 мм2.5 м/с5 %
    15:00Облачно с прояснениями+26°C36 %705 мм2.2 м/с5 %
    18:00Облачно с прояснениями+21°C64 %705 мм1.6 м/с5 %
    21:00Облачно с прояснениями+17°C75 %705 мм1.6 м/с5 %
  • 27июля
    Суббота
    +12°
    +27°
    Облачно с прояснениями
    ВремяПогодаТемператураВлажностьДавлениеВетер, м/сВероятность осадков
    00:00Облачно с прояснениями+15°C67 %705 мм1.4 м/с5 %
    03:00Облачно с прояснениями+14°C71 %704 мм1.9 м/с5 %
    06:00Облачно с прояснениями+13°C75 %704 мм1.9 м/с5 %
    09:00Облачно с прояснениями+17°C62 %706 мм3.1 м/с5 %
    12:00Облачно с прояснениями+24°C43 %706 мм2.4 м/с5 %
    15:00Облачно с прояснениями+27°C35 %705 мм2.4 м/с5 %
    18:00Небольшая облачность+21°C73 %705 мм2.2 м/с5 %
    21:00Облачно с прояснениями+18°C84 %706 мм1.7 м/с5 %
Мы используем cookies
Соглашаюсь